Time;durP1;ratioP1;P1;durP2;ratioP2;P2;SDS_P1;SDS_P2;PMS_P1;PMS_P2;Temp;Humidity;BMP_temperature;BMP_pressure;BME280_temperature;BME280_humidity;BME280_pressure;Samples;Min_cycle;Max_cycle;Signal;HPM_P1;HPM_P2
2021/08/25 00:02:11;;;;;;;12.35;8.85;;;;;;;11.21;84.68;97125.08;1746155;80;21537;-80
2021/08/25 00:04:38;;;;;;;12.13;9.18;;;;;;;11.20;84.67;97122.16;1715171;81;21360;-80
2021/08/25 00:07:07;;;;;;;12.45;8.95;;;;;;;11.20;84.81;97128.66;1800902;78;20967;-80
2021/08/25 00:09:33;;;;;;;11.50;8.20;;;;;;;11.20;84.85;97121.66;1794851;78;20960;-80
2021/08/25 00:11:58;;;;;;;12.82;8.55;;;;;;;11.23;84.90;97124.45;1801079;78;21394;-80
2021/08/25 00:14:24;;;;;;;12.25;9.10;;;;;;;11.24;84.97;97120.37;1801882;77;21040;-80
2021/08/25 00:16:50;;;;;;;11.05;9.25;;;;;;;11.28;85.11;97121.66;1799949;78;21032;-80
2021/08/25 00:19:15;;;;;;;11.50;9.43;;;;;;;11.31;85.25;97116.11;1794948;78;21004;-80
2021/08/25 00:21:41;;;;;;;13.85;9.88;;;;;;;11.36;85.54;97114.30;1798379;78;21439;-80
2021/08/25 00:24:07;;;;;;;16.02;9.75;;;;;;;11.40;85.79;97113.81;1799560;78;20936;-80
2021/08/25 00:26:32;;;;;;;15.10;10.40;;;;;;;11.47;85.85;97109.22;1801625;78;21027;-80
2021/08/25 00:28:58;;;;;;;12.58;11.10;;;;;;;11.54;85.89;97108.84;1800161;78;21024;-80
2021/08/25 00:31:24;;;;;;;16.00;13.78;;;;;;;11.60;85.95;97106.39;1799571;78;21100;-80
2021/08/25 00:33:49;;;;;;;19.10;12.55;;;;;;;11.66;85.84;97110.10;1797138;78;20926;-80
2021/08/25 00:36:15;;;;;;;15.53;12.43;;;;;;;11.69;85.94;97106.66;1771488;80;21343;-81
2021/08/25 00:38:41;;;;;;;15.80;12.37;;;;;;;11.69;85.68;97104.55;1774417;80;20927;-80
2021/08/25 00:41:07;;;;;;;16.45;13.32;;;;;;;11.69;85.53;97102.75;1773304;79;20951;-80
2021/08/25 00:43:32;;;;;;;15.80;11.80;;;;;;;11.70;85.41;97103.07;1775937;79;20911;-80
2021/08/25 00:45:59;;;;;;;15.03;11.45;;;;;;;11.70;85.16;97103.56;1771789;80;21021;-80
2021/08/25 00:48:25;;;;;;;15.75;12.70;;;;;;;11.64;85.12;97097.75;1775068;79;20989;-80
2021/08/25 00:50:52;;;;;;;18.90;12.90;;;;;;;11.60;85.02;97093.88;1740556;80;21000;-80
2021/08/25 00:53:22;;;;;;;18.48;13.15;;;;;;;11.54;84.84;97094.05;1740464;81;20940;-80
2021/08/25 00:55:46;;;;;;;18.48;12.05;;;;;;;11.48;84.76;97093.44;1799657;78;20957;-80
2021/08/25 00:58:12;;;;;;;13.50;10.98;;;;;;;11.45;84.61;97090.37;1800983;78;21019;-80
2021/08/25 01:00:52;;;;;;;15.25;10.43;;;;;;;11.40;84.52;97085.19;1743472;78;20996;-80
2021/08/25 01:03:20;;;;;;;14.87;9.10;;;;;;;11.36;84.31;97078.67;1791466;78;21080;-80
2021/08/25 01:05:47;;;;;;;10.98;7.62;;;;;;;11.31;84.22;97078.38;1771524;80;21063;-80
2021/08/25 01:08:13;;;;;;;11.75;7.97;;;;;;;11.26;84.07;97082.48;1774668;79;20963;-81
2021/08/25 01:10:38;;;;;;;11.48;7.65;;;;;;;11.15;83.89;97081.53;1776700;80;21450;-80
2021/08/25 01:13:07;;;;;;;9.80;6.08;;;;;;;11.08;83.78;97087.42;1755781;80;20964;-80
2021/08/25 01:15:35;;;;;;;10.32;5.65;;;;;;;11.02;83.51;97082.05;1774073;80;20917;-80
2021/08/25 01:18:01;;;;;;;7.67;4.78;;;;;;;10.97;83.58;97076.55;1774130;79;21308;-80
2021/08/25 01:20:27;;;;;;;7.75;4.25;;;;;;;10.88;83.48;97075.75;1776130;80;20928;-80
2021/08/25 01:22:53;;;;;;;8.70;4.60;;;;;;;10.77;83.31;97067.84;1736324;81;21066;-80
2021/08/25 01:25:19;;;;;;;8.60;4.17;;;;;;;10.68;83.49;97070.11;1744028;81;20997;-80
2021/08/25 01:27:54;;;;;;;9.68;4.20;;;;;;;10.60;83.51;97062.84;1805477;78;21052;-80
2021/08/25 01:30:20;;;;;;;8.38;4.37;;;;;;;10.55;83.61;97059.90;1802193;78;20945;-80
2021/08/25 01:32:46;;;;;;;7.62;4.03;;;;;;;10.52;83.51;97059.75;1774230;78;21064;-80
2021/08/25 01:35:12;;;;;;;7.58;4.28;;;;;;;10.49;83.46;97067.88;1802935;78;20977;-80
2021/08/25 01:37:37;;;;;;;8.65;4.60;;;;;;;10.45;83.41;97073.08;1799740;78;20920;-80
2021/08/25 01:40:04;;;;;;;7.80;4.30;;;;;;;10.40;83.61;97070.14;1794036;78;20952;-80
2021/08/25 01:42:30;;;;;;;9.88;4.72;;;;;;;10.34;83.89;97066.42;1806900;78;21316;-80
2021/08/25 01:44:56;;;;;;;9.38;4.85;;;;;;;10.31;83.97;97067.23;1800219;78;20966;-80
2021/08/25 01:47:22;;;;;;;8.15;3.08;;;;;;;10.28;83.86;97066.27;1804455;78;20985;-80
2021/08/25 01:49:48;;;;;;;7.62;3.47;;;;;;;10.25;83.62;97065.28;1797652;78;21283;-80
2021/08/25 01:52:15;;;;;;;6.12;3.08;;;;;;;10.20;83.49;97057.46;1796074;78;20954;-80
2021/08/25 01:54:42;;;;;;;7.10;3.05;;;;;;;10.15;83.47;97053.25;1798717;78;21433;-80
2021/08/25 01:57:08;;;;;;;6.17;3.35;;;;;;;10.10;83.61;97051.64;1799747;78;21017;-80
2021/08/25 01:59:37;;;;;;;6.08;2.90;;;;;;;10.08;83.94;97046.25;1800575;78;21384;-80
2021/08/25 02:02:03;;;;;;;6.03;3.35;;;;;;;10.02;83.87;97042.53;1795425;78;20996;-80
2021/08/25 02:04:29;;;;;;;6.40;2.87;;;;;;;9.99;83.88;97037.67;1797483;78;21027;-80
2021/08/25 02:06:55;;;;;;;7.65;4.10;;;;;;;9.98;83.93;97037.34;1802306;78;21427;-80
2021/08/25 02:09:21;;;;;;;5.40;3.50;;;;;;;9.96;83.86;97034.59;1802413;78;20971;-80
2021/08/25 02:11:48;;;;;;;5.87;3.27;;;;;;;9.93;83.83;97033.95;1803587;78;20936;-80
2021/08/25 02:14:13;;;;;;;5.12;2.80;;;;;;;9.90;83.86;97032.13;1794086;78;20991;-80
2021/08/25 02:16:39;;;;;;;7.80;3.55;;;;;;;9.85;83.88;97032.62;1802883;78;20950;-80
2021/08/25 02:19:05;;;;;;;5.72;2.90;;;;;;;9.80;83.81;97034.09;1803614;78;21305;-80
2021/08/25 02:21:31;;;;;;;8.05;3.00;;;;;;;9.78;83.86;97030.84;1804452;78;20948;-80
2021/08/25 02:23:56;;;;;;;6.78;3.40;;;;;;;9.77;83.99;97026.63;1799334;78;20969;-80
2021/08/25 02:26:22;;;;;;;5.78;2.87;;;;;;;9.76;83.75;97027.58;1802884;78;21306;-80
2021/08/25 02:28:51;;;;;;;9.88;3.35;;;;;;;9.74;83.74;97030.33;1799673;78;21421;-80
2021/08/25 02:31:16;;;;;;;7.95;3.25;;;;;;;9.60;84.01;97010.23;1802639;78;20950;-80
2021/08/25 02:33:42;;;;;;;10.50;4.45;;;;;;;9.68;84.10;97020.61;1775558;78;21007;-80
2021/08/25 02:36:08;;;;;;;8.95;3.92;;;;;;;9.67;84.28;97019.47;1797162;78;20968;-80
2021/08/25 02:38:35;;;;;;;6.80;3.40;;;;;;;9.69;84.43;97014.93;1795995;78;21363;-80
2021/08/25 02:41:01;;;;;;;8.33;4.00;;;;;;;9.71;84.49;97009.09;1776820;78;20953;-80
2021/08/25 02:43:26;;;;;;;7.83;3.90;;;;;;;9.75;84.56;97013.79;1800721;78;20986;-80
2021/08/25 02:45:52;;;;;;;5.80;3.67;;;;;;;9.80;84.84;97015.92;1803805;78;21362;-80
2021/08/25 02:48:18;;;;;;;9.73;3.40;;;;;;;9.85;85.09;97011.86;1801636;78;20941;-80
2021/08/25 02:50:44;;;;;;;7.05;3.45;;;;;;;9.88;85.45;97011.53;1798579;78;20936;-80
2021/08/25 02:53:09;;;;;;;8.65;3.87;;;;;;;9.94;85.67;97013.98;1794714;78;20945;-80
2021/08/25 02:55:36;;;;;;;6.62;3.67;;;;;;;10.00;85.75;97012.52;1800498;78;21004;-80
2021/08/25 02:58:02;;;;;;;6.28;3.12;;;;;;;10.04;85.72;97012.02;1799318;78;21369;-80
2021/08/25 03:00:28;;;;;;;5.37;2.95;;;;;;;10.10;85.66;97009.28;1790560;78;21001;-80
2021/08/25 03:02:54;;;;;;;8.48;4.20;;;;;;;10.15;85.76;97005.21;1792824;78;21432;-80
2021/08/25 03:05:19;;;;;;;7.97;3.65;;;;;;;10.20;85.74;97002.11;1799062;78;20966;-80
2021/08/25 03:07:45;;;;;;;7.05;3.33;;;;;;;10.25;85.78;97008.14;1798007;78;20921;-80
2021/08/25 03:10:11;;;;;;;8.85;3.47;;;;;;;10.27;85.90;97010.92;1795902;78;21260;-80
2021/08/25 03:12:37;;;;;;;9.23;3.83;;;;;;;10.29;86.00;97013.34;1791265;78;20987;-80
2021/08/25 03:15:07;;;;;;;9.30;4.22;;;;;;;10.33;86.00;97019.34;1795263;78;20977;-80
2021/08/25 03:17:33;;;;;;;8.40;4.12;;;;;;;10.41;85.92;97018.50;1773657;79;20991;-80
2021/08/25 03:19:58;;;;;;;7.12;3.50;;;;;;;10.46;85.82;97020.14;1772487;80;20995;-80
2021/08/25 03:22:24;;;;;;;7.47;3.75;;;;;;;10.46;85.72;97022.25;1773208;80;21004;-80
2021/08/25 03:24:50;;;;;;;8.68;4.42;;;;;;;10.47;85.79;97020.47;1777764;80;20926;-80
2021/08/25 03:27:15;;;;;;;7.08;3.83;;;;;;;10.50;85.90;97019.64;1754083;80;20936;-80
2021/08/25 03:29:41;;;;;;;7.20;3.67;;;;;;;10.50;85.79;97019.64;1774878;80;20944;-80
2021/08/25 03:32:07;;;;;;;6.95;3.58;;;;;;;10.52;85.73;97016.38;1800403;78;21513;-80
2021/08/25 03:34:33;;;;;;;7.05;3.72;;;;;;;10.32;85.68;96985.25;1799282;78;21063;-80
2021/08/25 03:36:58;;;;;;;7.20;3.72;;;;;;;10.53;85.69;97009.40;1795610;78;21404;-80
2021/08/25 03:39:24;;;;;;;7.30;3.55;;;;;;;10.61;85.95;97017.19;1800419;78;21084;-80
2021/08/25 03:41:50;;;;;;;6.60;3.35;;;;;;;10.66;85.95;97019.28;1800447;78;20998;-80
2021/08/25 03:44:16;;;;;;;7.40;3.92;;;;;;;10.68;85.93;97015.53;1799032;78;21019;-81
2021/08/25 03:46:42;;;;;;;6.53;3.15;;;;;;;10.71;85.86;97011.78;1804957;78;21043;-80
2021/08/25 03:49:08;;;;;;;6.53;3.45;;;;;;;10.75;85.90;97007.41;1805139;78;21339;-80
2021/08/25 03:51:34;;;;;;;5.80;3.30;;;;;;;10.81;85.99;97005.92;1801975;78;21004;-80
2021/08/25 03:53:59;;;;;;;7.90;3.70;;;;;;;10.85;85.79;97005.09;1801968;78;20930;-80
2021/08/25 03:56:25;;;;;;;7.12;3.50;;;;;;;10.88;86.17;97008.16;1803242;78;20957;-80
2021/08/25 03:58:51;;;;;;;5.75;3.37;;;;;;;10.91;86.24;96997.94;1804354;78;20929;-80
2021/08/25 04:01:17;;;;;;;6.05;3.33;;;;;;;10.94;86.20;96999.70;1778633;79;20956;-80
2021/08/25 04:03:42;;;;;;;6.37;3.70;;;;;;;10.97;86.00;97001.15;1798243;78;21004;-80
2021/08/25 04:06:08;;;;;;;8.30;3.85;;;;;;;10.99;85.72;97000.48;1803647;78;20959;-80
2021/08/25 04:08:34;;;;;;;6.53;3.58;;;;;;;11.01;85.59;97000.63;1801012;78;21954;-80
2021/08/25 04:10:59;;;;;;;7.35;3.98;;;;;;;11.00;85.49;97004.22;1799051;77;20944;-80
2021/08/25 04:13:25;;;;;;;9.08;4.12;;;;;;;10.96;85.44;97002.94;1806900;78;21293;-80
2021/08/25 04:15:51;;;;;;;6.72;3.98;;;;;;;10.97;85.63;97003.26;1796932;78;21047;-80
2021/08/25 04:18:17;;;;;;;6.75;3.47;;;;;;;10.97;85.50;96998.55;1802576;78;20977;-80
2021/08/25 04:20:43;;;;;;;7.75;4.12;;;;;;;10.99;85.42;97001.78;1795621;77;20975;-80
2021/08/25 04:23:08;;;;;;;9.50;4.28;;;;;;;10.98;85.38;96991.06;1796084;78;21000;-80
2021/08/25 04:25:34;;;;;;;6.75;3.92;;;;;;;10.98;85.51;96990.58;1808046;78;21039;-80
2021/08/25 04:28:00;;;;;;;7.33;4.37;;;;;;;11.00;85.61;96987.80;1803346;78;21051;-80
2021/08/25 04:30:25;;;;;;;8.98;4.20;;;;;;;11.06;85.91;96986.66;1804867;78;21048;-80
2021/08/25 04:32:51;;;;;;;8.35;4.25;;;;;;;11.08;85.66;96987.30;1803111;78;20973;-80
2021/08/25 04:35:17;;;;;;;7.10;3.72;;;;;;;11.12;85.71;96988.56;1803206;78;20954;-80
2021/08/25 04:37:43;;;;;;;7.80;3.83;;;;;;;11.18;85.79;96987.06;1800009;77;21024;-80
2021/08/25 04:40:09;;;;;;;6.80;3.90;;;;;;;11.22;85.45;96985.73;1797913;78;21316;-79
2021/08/25 04:42:35;;;;;;;7.15;3.70;;;;;;;11.25;85.28;96988.52;1794563;78;21312;-80
2021/08/25 04:45:00;;;;;;;5.53;3.75;;;;;;;11.26;85.38;96993.55;1799198;78;20932;-80
2021/08/25 04:47:26;;;;;;;8.48;4.12;;;;;;;11.29;85.62;96985.39;1802890;78;20957;-80
2021/08/25 04:49:52;;;;;;;8.48;4.83;;;;;;;11.35;85.54;96981.28;1802819;78;20979;-80
2021/08/25 04:52:17;;;;;;;6.40;3.85;;;;;;;11.35;85.41;96980.79;1794479;78;21066;-80
2021/08/25 04:54:44;;;;;;;6.30;3.90;;;;;;;11.41;85.57;96989.23;1796584;78;21363;-80
2021/08/25 04:57:09;;;;;;;8.28;6.25;;;;;;;11.41;85.45;96991.02;1773800;80;20943;-80
2021/08/25 04:59:35;;;;;;;8.00;4.87;;;;;;;11.42;85.47;96987.44;1774019;79;21012;-80
2021/08/25 05:02:01;;;;;;;7.10;4.40;;;;;;;11.43;85.76;96987.27;1774413;80;20975;-80
2021/08/25 05:04:28;;;;;;;8.88;4.08;;;;;;;11.49;85.85;96979.73;1773564;80;21054;-80
2021/08/25 05:06:53;;;;;;;7.30;3.60;;;;;;;11.55;85.89;96977.73;1777528;80;21436;-80
2021/08/25 05:09:19;;;;;;;7.60;3.60;;;;;;;11.59;85.89;96970.73;1775925;80;20921;-80
2021/08/25 05:11:45;;;;;;;6.10;3.60;;;;;;;11.70;85.68;96974.70;1778229;79;20947;-80
2021/08/25 05:14:10;;;;;;;9.25;4.75;;;;;;;11.73;85.55;96974.38;1775186;80;21308;-80
2021/08/25 05:16:36;;;;;;;9.60;4.10;;;;;;;11.72;85.48;96968.86;1762641;80;20943;-80
2021/08/25 05:19:02;;;;;;;7.05;3.58;;;;;;;11.78;85.76;96970.75;1765960;80;20932;-80
2021/08/25 05:21:27;;;;;;;5.40;3.35;;;;;;;11.86;85.82;96975.91;1773628;79;20883;-80
2021/08/25 05:23:53;;;;;;;6.92;4.37;;;;;;;11.92;85.69;96973.13;1810063;79;20949;-80
2021/08/25 05:26:19;;;;;;;6.55;3.45;;;;;;;11.95;85.60;96968.86;1813372;78;20986;-80
2021/08/25 05:28:45;;;;;;;4.42;3.00;;;;;;;11.99;85.72;96963.11;1810766;78;21352;-80
2021/08/25 05:31:11;;;;;;;7.50;4.03;;;;;;;11.96;85.08;96975.19;1810699;78;20886;-80
2021/08/25 05:33:36;;;;;;;9.80;6.30;;;;;;;11.82;85.52;96968.14;1811606;78;20999;-80
2021/08/25 05:36:02;;;;;;;8.13;6.30;;;;;;;11.83;85.63;96967.64;1809841;78;21366;-80
2021/08/25 05:38:28;;;;;;;16.20;9.80;;;;;;;11.84;85.82;96966.17;1803312;78;21321;-80
2021/08/25 05:40:54;;;;;;;13.35;10.45;;;;;;;11.91;85.31;96967.10;1815488;78;20995;-80
2021/08/25 05:43:20;;;;;;;16.15;10.85;;;;;;;11.96;84.97;96958.75;1807251;78;20997;-80
2021/08/25 05:45:45;;;;;;;16.93;11.30;;;;;;;12.01;85.14;96959.83;1806391;78;21012;-80
2021/08/25 05:48:11;;;;;;;13.55;9.78;;;;;;;12.03;85.06;96954.45;1808075;78;21383;-80
2021/08/25 05:50:37;;;;;;;10.80;7.85;;;;;;;12.09;85.42;96953.76;1812273;79;21292;-80
2021/08/25 05:53:03;;;;;;;13.60;9.83;;;;;;;12.19;85.52;96954.30;1812043;78;20949;-80
2021/08/25 05:55:28;;;;;;;14.53;12.75;;;;;;;12.22;85.19;96951.36;1807177;78;21032;-80
2021/08/25 05:57:56;;;;;;;15.70;11.73;;;;;;;12.18;85.22;96963.09;1809417;78;21088;-80
2021/08/25 06:00:22;;;;;;;11.80;9.88;;;;;;;12.14;85.22;96961.84;1785822;79;20961;-80
2021/08/25 06:02:48;;;;;;;10.88;6.65;;;;;;;12.20;85.68;96966.83;1807057;78;20913;-80
2021/08/25 06:05:14;;;;;;;10.50;5.03;;;;;;;12.26;84.94;96970.86;1811300;78;20957;-80
2021/08/25 06:07:40;;;;;;;9.80;5.92;;;;;;;12.14;83.49;96967.55;1809802;78;20951;-80
2021/08/25 06:10:07;;;;;;;8.28;5.80;;;;;;;12.07;83.37;96973.16;1792268;78;21505;-80
2021/08/25 06:12:33;;;;;;;8.63;5.33;;;;;;;12.07;83.88;96973.16;1810570;78;20953;-80
2021/08/25 06:14:59;;;;;;;10.58;5.60;;;;;;;12.13;84.08;96973.25;1808144;78;20935;-80
2021/08/25 06:17:25;;;;;;;11.90;6.60;;;;;;;12.19;84.44;96969.93;1811327;77;20915;-80
2021/08/25 06:19:51;;;;;;;9.20;5.20;;;;;;;12.29;84.95;96964.47;1813146;78;20956;-80
2021/08/25 06:22:16;;;;;;;8.80;5.45;;;;;;;12.40;84.81;96970.56;1808712;78;20983;-80
2021/08/25 06:24:42;;;;;;;10.38;6.33;;;;;;;12.52;85.02;96975.63;1808372;79;20897;-79
2021/08/25 06:27:08;;;;;;;10.05;7.20;;;;;;;12.61;84.24;96977.66;1816166;78;20906;-80
2021/08/25 06:29:34;;;;;;;14.47;8.93;;;;;;;12.65;84.08;96975.00;1809470;78;20940;-80
2021/08/25 06:31:59;;;;;;;13.70;10.48;;;;;;;12.67;83.61;96976.13;1810529;78;20997;-80
2021/08/25 06:34:25;;;;;;;12.98;8.60;;;;;;;12.70;83.88;96972.69;1801977;78;21471;-80
2021/08/25 06:36:51;;;;;;;12.40;7.72;;;;;;;12.75;84.03;96974.75;1804013;78;20940;-80
2021/08/25 06:39:17;;;;;;;12.07;7.08;;;;;;;12.81;83.97;96979.23;1811686;77;20930;-80
2021/08/25 06:41:42;;;;;;;15.05;7.28;;;;;;;12.92;83.80;96981.39;1817901;78;21362;-80
2021/08/25 06:44:08;;;;;;;9.60;6.75;;;;;;;12.98;83.25;96978.04;1811707;77;20993;-80
2021/08/25 06:46:34;;;;;;;12.40;6.22;;;;;;;13.06;83.45;96979.26;1808594;78;21061;-80
2021/08/25 06:49:00;;;;;;;10.78;6.85;;;;;;;13.12;83.69;96972.00;1812128;78;20882;-80
2021/08/25 06:51:25;;;;;;;12.00;8.65;;;;;;;13.17;83.25;96976.66;1808198;78;21363;-80
2021/08/25 06:53:51;;;;;;;10.10;6.67;;;;;;;13.23;83.16;96977.28;1777704;79;20966;-80
2021/08/25 06:56:17;;;;;;;12.40;9.48;;;;;;;13.33;83.44;96975.16;1804354;78;21000;-80
2021/08/25 06:58:43;;;;;;;15.03;11.90;;;;;;;13.39;83.75;96973.14;1805160;78;21263;-80
2021/08/25 07:01:09;;;;;;;15.35;11.73;;;;;;;13.42;83.56;96974.57;1798114;78;20950;-80
2021/08/25 07:03:36;;;;;;;13.50;9.05;;;;;;;13.41;83.26;96978.98;1777695;79;20990;-80
2021/08/25 07:06:02;;;;;;;11.53;8.20;;;;;;;13.36;82.03;96971.41;1806285;78;21043;-80
2021/08/25 07:08:28;;;;;;;10.68;8.00;;;;;;;13.30;82.27;96968.20;1791960;79;20937;-80
2021/08/25 07:10:53;;;;;;;11.05;6.92;;;;;;;13.39;82.51;96962.70;1805765;78;21302;-80
2021/08/25 07:13:20;;;;;;;10.03;6.55;;;;;;;13.52;82.84;96959.42;1792744;78;21037;-80
2021/08/25 07:15:45;;;;;;;11.15;6.65;;;;;;;13.58;82.80;96957.86;1813044;77;21409;-80
2021/08/25 07:18:11;;;;;;;8.78;5.72;;;;;;;13.64;82.34;96961.02;1807590;78;21054;-80
2021/08/25 07:20:37;;;;;;;9.28;6.12;;;;;;;13.74;82.45;96961.03;1762481;80;20923;-80
2021/08/25 07:23:03;;;;;;;11.55;6.67;;;;;;;13.91;82.56;96956.85;1761455;80;20900;-80
2021/08/25 07:25:28;;;;;;;11.73;7.83;;;;;;;14.01;81.92;96952.13;1762319;80;21374;-80
2021/08/25 07:27:54;;;;;;;12.55;8.73;;;;;;;14.04;81.46;96951.74;1759350;80;21334;-80
2021/08/25 07:30:20;;;;;;;11.00;7.62;;;;;;;14.00;78.50;96957.84;1793213;78;20944;-80
2021/08/25 07:32:45;;;;;;;10.93;8.25;;;;;;;14.01;79.94;96960.77;1797262;78;20984;-80
2021/08/25 07:35:11;;;;;;;11.25;8.23;;;;;;;14.04;80.61;96956.47;1794830;78;21392;-80
2021/08/25 07:37:37;;;;;;;13.45;7.95;;;;;;;14.09;80.41;96948.86;1809903;78;20999;-80
2021/08/25 07:40:05;;;;;;;13.55;9.80;;;;;;;14.21;80.84;96955.69;1802816;78;20910;-80
2021/08/25 07:42:30;;;;;;;12.00;10.70;;;;;;;14.22;79.78;96953.38;1792473;78;21367;-80
2021/08/25 07:44:56;;;;;;;14.78;11.55;;;;;;;14.19;79.56;96948.54;1796903;78;20993;-80
2021/08/25 07:47:22;;;;;;;13.30;11.03;;;;;;;14.22;78.16;96942.92;1800784;78;20949;-80
2021/08/25 07:49:48;;;;;;;13.70;11.85;;;;;;;14.22;76.30;96944.23;1802969;78;21343;-80
2021/08/25 07:52:13;;;;;;;15.05;11.88;;;;;;;14.25;77.76;96941.23;1809556;78;20965;-80
2021/08/25 07:54:39;;;;;;;11.22;9.93;;;;;;;14.21;77.26;96941.31;1785539;79;20930;-80
2021/08/25 07:57:05;;;;;;;10.80;8.48;;;;;;;14.24;77.15;96942.73;1804735;78;21363;-80
2021/08/25 07:59:31;;;;;;;13.95;11.35;;;;;;;14.22;74.77;96944.73;1798882;78;20912;-80
2021/08/25 08:01:56;;;;;;;14.58;11.93;;;;;;;14.23;76.89;96940.62;1811217;78;20924;-80
2021/08/25 08:04:22;;;;;;;13.60;11.22;;;;;;;14.21;77.32;96943.92;1797712;78;21388;-80
2021/08/25 08:06:48;;;;;;;11.85;10.30;;;;;;;14.20;75.61;96938.89;1811106;78;20973;-80
2021/08/25 08:09:15;;;;;;;13.83;10.88;;;;;;;14.19;72.48;96940.70;1803185;78;20926;-80
2021/08/25 08:11:40;;;;;;;12.40;10.88;;;;;;;14.06;72.60;96937.98;1804190;78;21483;-80
2021/08/25 08:14:07;;;;;;;14.23;11.33;;;;;;;14.00;74.94;96934.83;1811041;78;21001;-80
2021/08/25 08:16:35;;;;;;;14.30;11.73;;;;;;;14.00;75.84;96925.19;1796596;78;21261;-79
2021/08/25 08:21:46;;;;;;;15.13;11.25;;;;;;;14.04;74.41;96919.08;1799579;78;21059;-80
2021/08/25 08:24:11;;;;;;;15.25;12.75;;;;;;;14.01;72.38;96917.66;1806292;79;21422;-79
2021/08/25 08:26:37;;;;;;;14.73;11.03;;;;;;;14.05;74.19;96912.36;1804960;78;21043;-80
2021/08/25 08:29:03;;;;;;;14.00;11.88;;;;;;;14.10;73.90;96911.78;1797149;78;20927;-80
2021/08/25 08:31:29;;;;;;;13.13;11.73;;;;;;;14.16;72.11;96911.53;1805960;78;20982;-80
2021/08/25 08:33:55;;;;;;;13.50;11.33;;;;;;;14.24;72.37;96907.45;1807434;78;21019;-80
2021/08/25 08:36:21;;;;;;;14.78;12.82;;;;;;;14.24;67.72;96903.53;1806981;78;20906;-80
2021/08/25 08:38:46;;;;;;;15.18;13.58;;;;;;;14.26;70.82;96904.95;1806236;79;20973;-80
2021/08/25 08:41:12;;;;;;;15.78;12.58;;;;;;;14.33;72.34;96904.50;1807651;78;21287;-80
2021/08/25 08:43:48;;;;;;;13.72;12.10;;;;;;;14.42;69.89;96899.41;1807259;78;20977;-80
2021/08/25 08:46:15;;;;;;;15.18;13.58;;;;;;;14.53;69.18;96898.10;1784793;78;21450;-80
2021/08/25 08:48:42;;;;;;;14.87;11.70;;;;;;;14.62;71.30;96901.34;1802061;78;20993;-80
2021/08/25 08:51:14;;;;;;;10.90;9.20;;;;;;;14.60;67.87;96902.05;1809133;78;21027;-80
2021/08/25 08:53:40;;;;;;;15.18;12.88;;;;;;;14.57;63.36;96899.82;1783551;79;20993;-80
2021/08/25 08:56:05;;;;;;;11.80;10.50;;;;;;;14.60;67.50;96893.70;1739407;78;21334;-80
2021/08/25 08:58:31;;;;;;;15.13;11.78;;;;;;;14.69;67.38;96895.16;1811863;78;20949;-80
2021/08/25 09:00:57;;;;;;;13.30;11.90;;;;;;;14.70;66.18;96894.16;1793199;78;20944;-80
2021/08/25 09:03:27;;;;;;;14.33;11.95;;;;;;;14.57;66.41;96890.66;1813007;78;20928;-80
2021/08/25 09:05:57;;;;;;;15.03;12.73;;;;;;;14.65;66.57;96881.36;1815742;78;20972;-80
2021/08/25 09:08:27;;;;;;;14.68;12.75;;;;;;;14.73;66.43;96882.98;1815439;78;20932;-80
2021/08/25 09:11:06;;;;;;;13.88;11.00;;;;;;;14.77;67.34;96882.40;1806386;78;21001;-80
2021/08/25 09:13:48;;;;;;;12.37;9.10;;;;;;;14.86;63.70;96884.36;1808900;78;20984;-80
2021/08/25 09:16:10;;;;;;;10.50;8.35;;;;;;;14.94;63.74;96877.63;1808668;78;20967;-80
2021/08/25 09:18:36;;;;;;;12.13;8.88;;;;;;;14.93;61.44;96876.81;1722794;81;20964;-80
2021/08/25 09:21:02;;;;;;;13.50;8.98;;;;;;;14.85;60.97;96876.20;1747772;81;20923;-80
2021/08/25 09:23:28;;;;;;;12.28;9.00;;;;;;;14.70;62.97;96869.80;1768156;80;20977;-80
2021/08/25 09:26:01;;;;;;;12.00;9.10;;;;;;;14.58;65.48;96873.98;1766077;80;21031;-80
2021/08/25 09:28:36;;;;;;;11.50;9.20;;;;;;;14.49;63.08;96868.62;1739143;80;21071;-80
2021/08/25 09:31:06;;;;;;;11.60;9.15;;;;;;;14.45;63.31;96859.53;1738716;80;21027;-80
2021/08/25 09:33:39;;;;;;;12.43;9.68;;;;;;;14.48;61.53;96863.89;1806467;78;20977;-80
2021/08/25 09:36:14;;;;;;;12.85;9.85;;;;;;;14.55;62.17;96857.38;1807102;78;21368;-80
2021/08/25 09:38:43;;;;;;;13.18;10.58;;;;;;;14.67;63.04;96857.94;1808830;78;20910;-80
2021/08/25 09:41:10;;;;;;;11.85;10.08;;;;;;;14.80;62.70;96857.15;1802730;78;20905;-80
2021/08/25 09:43:49;;;;;;;12.75;10.15;;;;;;;14.87;60.89;96851.95;1802519;78;20984;-80
2021/08/25 09:46:25;;;;;;;12.05;9.78;;;;;;;14.92;64.83;96844.31;1805007;78;21019;-80
2021/08/25 09:48:57;;;;;;;14.28;10.30;;;;;;;15.06;64.41;96841.23;1809557;78;20957;-80
2021/08/25 09:51:25;;;;;;;14.18;10.30;;;;;;;15.19;64.14;96841.26;1805583;79;20988;-80
2021/08/25 09:54:04;;;;;;;12.07;9.65;;;;;;;15.35;64.38;96843.49;1815403;78;21341;-80
2021/08/25 09:56:33;;;;;;;13.08;9.70;;;;;;;15.49;63.00;96836.45;1792027;79;20948;-81
2021/08/25 09:59:00;;;;;;;14.68;10.00;;;;;;;15.56;62.00;96834.62;1800244;78;20984;-80
2021/08/25 10:01:26;;;;;;;14.23;11.03;;;;;;;15.66;64.20;96836.89;1807921;78;21404;-80
2021/08/25 10:03:53;;;;;;;12.10;9.63;;;;;;;15.70;62.06;96827.10;1809326;78;21061;-80
2021/08/25 10:06:20;;;;;;;11.48;10.25;;;;;;;15.81;60.74;96823.07;1796756;78;20970;-80
2021/08/25 10:08:46;;;;;;;13.78;10.78;;;;;;;15.95;62.14;96829.91;1804390;78;21376;-80
2021/08/25 10:11:13;;;;;;;12.60;9.73;;;;;;;16.13;61.32;96820.09;1800641;78;21056;-80
2021/08/25 10:13:39;;;;;;;13.48;9.95;;;;;;;16.34;60.42;96825.06;1820082;78;21308;-80
2021/08/25 10:16:07;;;;;;;13.15;9.65;;;;;;;16.50;59.90;96819.86;1803190;78;20954;-80
2021/08/25 10:18:42;;;;;;;12.93;9.93;;;;;;;16.52;59.16;96819.14;1802308;78;21000;-80
2021/08/25 10:21:37;;;;;;;11.63;9.55;;;;;;;16.32;59.35;96820.53;1802449;78;21017;-80
2021/08/25 10:24:06;;;;;;;12.60;10.18;;;;;;;16.08;58.91;96819.38;1793879;78;21371;-80
2021/08/25 10:26:35;;;;;;;14.35;10.50;;;;;;;15.83;59.31;96815.30;1806440;78;21024;-80
2021/08/25 10:29:09;;;;;;;14.87;10.82;;;;;;;15.67;60.28;96810.99;1765760;78;20968;-80
2021/08/25 10:31:56;;;;;;;13.40;10.23;;;;;;;15.45;59.94;96822.13;1804034;78;21353;-80
2021/08/25 10:34:38;;;;;;;12.75;10.10;;;;;;;15.35;61.60;96816.00;1806541;78;20958;-80
2021/08/25 10:37:28;;;;;;;13.58;11.10;;;;;;;15.24;61.56;96814.77;1796213;78;21315;-80
2021/08/25 10:39:59;;;;;;;13.55;10.72;;;;;;;15.35;62.43;96816.00;1808680;78;20998;-80
2021/08/25 10:42:55;;;;;;;13.35;10.63;;;;;;;15.52;62.90;96795.45;1799441;79;21282;-80
2021/08/25 10:45:45;;;;;;;11.80;9.30;;;;;;;15.69;64.40;96795.88;1802680;78;20970;-80
2021/08/25 10:48:12;;;;;;;14.13;9.68;;;;;;;15.71;59.92;96788.11;1797592;78;20956;-80
2021/08/25 10:50:54;;;;;;;12.80;9.25;;;;;;;15.84;59.71;96783.36;1809782;79;20983;-80
2021/08/25 10:53:36;;;;;;;13.48;10.28;;;;;;;15.99;59.46;96779.19;1809866;78;20973;-80
2021/08/25 10:56:15;;;;;;;12.58;10.08;;;;;;;16.20;60.13;96769.23;1786907;78;21360;-80
2021/08/25 10:58:58;;;;;;;11.25;9.15;;;;;;;16.37;60.90;96767.45;1812287;77;20974;-80
2021/08/25 11:01:34;;;;;;;11.40;9.03;;;;;;;16.40;58.52;96764.41;1785398;79;20941;-80
2021/08/25 11:04:15;;;;;;;10.78;8.13;;;;;;;16.27;60.33;96771.84;1760281;81;20950;-80
2021/08/25 11:06:52;;;;;;;12.33;9.95;;;;;;;16.06;56.58;96767.66;1803600;79;20889;-80
2021/08/25 11:09:35;;;;;;;12.10;9.15;;;;;;;15.79;60.58;96770.07;1812676;78;20980;-80
2021/08/25 11:12:12;;;;;;;11.75;8.80;;;;;;;15.69;61.57;96762.63;1800544;78;21008;-80
2021/08/25 11:14:48;;;;;;;12.10;9.58;;;;;;;15.82;62.73;96762.60;1798386;77;20964;-80
2021/08/25 11:17:20;;;;;;;12.18;10.18;;;;;;;16.10;63.28;96761.50;1812464;78;21362;-81
2021/08/25 11:19:54;;;;;;;;;;;;;;;16.37;61.15;96753.03;1799717;78;21342;-80
2021/08/25 11:22:33;;;;;;;11.88;9.43;;;;;;;16.57;56.27;96751.11;1808536;78;20082;-81
2021/08/25 11:25:05;;;;;;;13.48;9.65;;;;;;;16.66;58.12;96754.30;1804883;78;20993;-81
2021/08/25 11:27:46;;;;;;;13.03;10.13;;;;;;;16.82;57.36;96750.41;1804944;78;21400;-81
2021/08/25 11:30:19;;;;;;;12.53;10.13;;;;;;;16.97;58.55;96742.53;1808264;77;20978;-80
2021/08/25 11:32:54;;;;;;;11.00;8.33;;;;;;;17.25;58.47;96743.44;1795139;78;21361;-80